sensor_id;sensor_type;location;lat;lon;timestamp;P1;durP1;ratioP1;P2;durP2;ratioP2
57832;SDS011;43667;53.036;6.740;2023-07-20T00:01:35;2.35;;;2.05;;
57832;SDS011;43667;53.036;6.740;2023-07-20T00:04:00;2.42;;;1.77;;
57832;SDS011;43667;53.036;6.740;2023-07-20T00:06:26;6.68;;;1.98;;
57832;SDS011;43667;53.036;6.740;2023-07-20T00:08:52;3.00;;;1.40;;
57832;SDS011;43667;53.036;6.740;2023-07-20T00:11:19;2.90;;;1.58;;
57832;SDS011;43667;53.036;6.740;2023-07-20T00:13:44;3.70;;;1.40;;
57832;SDS011;43667;53.036;6.740;2023-07-20T00:16:10;2.13;;;1.00;;
57832;SDS011;43667;53.036;6.740;2023-07-20T00:18:35;1.67;;;1.00;;
57832;SDS011;43667;53.036;6.740;2023-07-20T00:21:01;2.83;;;1.65;;
57832;SDS011;43667;53.036;6.740;2023-07-20T00:23:27;2.20;;;1.17;;
57832;SDS011;43667;53.036;6.740;2023-07-20T00:25:53;1.77;;;0.98;;
57832;SDS011;43667;53.036;6.740;2023-07-20T00:28:18;1.90;;;0.80;;
57832;SDS011;43667;53.036;6.740;2023-07-20T00:30:44;1.02;;;0.80;;
57832;SDS011;43667;53.036;6.740;2023-07-20T00:33:10;2.35;;;0.80;;
57832;SDS011;43667;53.036;6.740;2023-07-20T00:35:37;2.30;;;0.95;;
57832;SDS011;43667;53.036;6.740;2023-07-20T00:38:03;2.92;;;0.63;;
57832;SDS011;43667;53.036;6.740;2023-07-20T00:40:35;1.35;;;0.60;;
57832;SDS011;43667;53.036;6.740;2023-07-20T00:43:04;2.80;;;0.55;;
57832;SDS011;43667;53.036;6.740;2023-07-20T00:45:30;1.65;;;0.75;;
57832;SDS011;43667;53.036;6.740;2023-07-20T00:47:57;0.90;;;0.60;;
57832;SDS011;43667;53.036;6.740;2023-07-20T00:50:24;1.48;;;0.50;;
57832;SDS011;43667;53.036;6.740;2023-07-20T00:52:51;1.45;;;0.55;;
57832;SDS011;43667;53.036;6.740;2023-07-20T00:55:17;1.15;;;0.68;;
57832;SDS011;43667;53.036;6.740;2023-07-20T00:57:43;2.47;;;0.60;;
57832;SDS011;43667;53.036;6.740;2023-07-20T01:00:09;1.52;;;0.60;;
57832;SDS011;43667;53.036;6.740;2023-07-20T01:02:35;1.17;;;0.75;;
57832;SDS011;43667;53.036;6.740;2023-07-20T01:05:01;0.93;;;0.45;;
57832;SDS011;43667;53.036;6.740;2023-07-20T01:08:14;1.48;;;0.60;;
57832;SDS011;43667;53.036;6.740;2023-07-20T01:10:18;1.58;;;0.70;;
57832;SDS011;43667;53.036;6.740;2023-07-20T01:12:51;1.27;;;0.60;;
57832;SDS011;43667;53.036;6.740;2023-07-20T01:15:18;1.75;;;1.38;;
57832;SDS011;43667;53.036;6.740;2023-07-20T01:17:44;1.45;;;0.90;;
57832;SDS011;43667;53.036;6.740;2023-07-20T01:20:10;1.92;;;0.80;;
57832;SDS011;43667;53.036;6.740;2023-07-20T01:31:25;1.42;;;0.73;;
57832;SDS011;43667;53.036;6.740;2023-07-20T01:33:57;4.75;;;1.10;;
57832;SDS011;43667;53.036;6.740;2023-07-20T01:36:26;1.75;;;1.20;;
57832;SDS011;43667;53.036;6.740;2023-07-20T01:38:54;2.70;;;1.50;;
57832;SDS011;43667;53.036;6.740;2023-07-20T01:41:21;2.78;;;1.00;;
57832;SDS011;43667;53.036;6.740;2023-07-20T01:43:46;2.40;;;1.52;;
57832;SDS011;43667;53.036;6.740;2023-07-20T01:46:12;1.75;;;0.95;;
57832;SDS011;43667;53.036;6.740;2023-07-20T01:48:38;3.35;;;1.50;;
57832;SDS011;43667;53.036;6.740;2023-07-20T01:51:03;1.63;;;1.52;;
57832;SDS011;43667;53.036;6.740;2023-07-20T01:53:29;2.45;;;2.25;;
57832;SDS011;43667;53.036;6.740;2023-07-20T01:55:54;3.97;;;2.10;;
57832;SDS011;43667;53.036;6.740;2023-07-20T01:58:21;5.50;;;1.60;;
57832;SDS011;43667;53.036;6.740;2023-07-20T02:00:47;2.40;;;1.30;;
57832;SDS011;43667;53.036;6.740;2023-07-20T02:03:15;2.03;;;1.83;;
57832;SDS011;43667;53.036;6.740;2023-07-20T02:05:42;3.00;;;2.15;;
57832;SDS011;43667;53.036;6.740;2023-07-20T02:08:08;3.28;;;2.42;;
57832;SDS011;43667;53.036;6.740;2023-07-20T02:10:33;3.05;;;2.25;;
57832;SDS011;43667;53.036;6.740;2023-07-20T02:12:59;3.75;;;2.40;;
57832;SDS011;43667;53.036;6.740;2023-07-20T02:15:24;3.05;;;2.65;;
57832;SDS011;43667;53.036;6.740;2023-07-20T02:17:50;5.43;;;3.63;;
57832;SDS011;43667;53.036;6.740;2023-07-20T02:20:16;3.83;;;3.10;;
57832;SDS011;43667;53.036;6.740;2023-07-20T02:22:42;9.18;;;2.78;;
57832;SDS011;43667;53.036;6.740;2023-07-20T02:25:08;3.08;;;2.30;;
57832;SDS011;43667;53.036;6.740;2023-07-20T02:27:34;5.18;;;3.30;;
57832;SDS011;43667;53.036;6.740;2023-07-20T02:30:00;3.20;;;2.90;;
57832;SDS011;43667;53.036;6.740;2023-07-20T02:32:25;3.47;;;3.15;;
57832;SDS011;43667;53.036;6.740;2023-07-20T02:34:51;3.47;;;2.70;;
57832;SDS011;43667;53.036;6.740;2023-07-20T02:37:17;3.63;;;3.33;;
57832;SDS011;43667;53.036;6.740;2023-07-20T02:39:42;3.95;;;3.30;;
57832;SDS011;43667;53.036;6.740;2023-07-20T02:42:08;5.97;;;3.78;;
57832;SDS011;43667;53.036;6.740;2023-07-20T02:44:34;4.78;;;4.38;;
57832;SDS011;43667;53.036;6.740;2023-07-20T02:47:01;4.03;;;3.50;;
57832;SDS011;43667;53.036;6.740;2023-07-20T02:49:28;3.72;;;3.28;;
57832;SDS011;43667;53.036;6.740;2023-07-20T02:51:54;4.00;;;3.35;;
57832;SDS011;43667;53.036;6.740;2023-07-20T02:54:20;4.55;;;3.50;;
57832;SDS011;43667;53.036;6.740;2023-07-20T02:56:46;4.07;;;3.45;;
57832;SDS011;43667;53.036;6.740;2023-07-20T02:59:11;4.25;;;3.85;;
57832;SDS011;43667;53.036;6.740;2023-07-20T03:01:37;6.45;;;4.50;;
57832;SDS011;43667;53.036;6.740;2023-07-20T03:04:03;5.75;;;5.07;;
57832;SDS011;43667;53.036;6.740;2023-07-20T03:06:29;6.40;;;4.28;;
57832;SDS011;43667;53.036;6.740;2023-07-20T03:08:54;3.90;;;3.60;;
57832;SDS011;43667;53.036;6.740;2023-07-20T03:11:20;4.00;;;3.60;;
57832;SDS011;43667;53.036;6.740;2023-07-20T03:13:46;4.28;;;3.85;;
57832;SDS011;43667;53.036;6.740;2023-07-20T03:16:17;5.03;;;4.00;;
57832;SDS011;43667;53.036;6.740;2023-07-20T03:18:43;3.90;;;3.60;;
57832;SDS011;43667;53.036;6.740;2023-07-20T03:21:10;5.55;;;5.00;;
57832;SDS011;43667;53.036;6.740;2023-07-20T03:23:36;6.10;;;4.53;;
57832;SDS011;43667;53.036;6.740;2023-07-20T03:26:02;4.53;;;4.13;;
57832;SDS011;43667;53.036;6.740;2023-07-20T03:28:29;4.63;;;4.18;;
57832;SDS011;43667;53.036;6.740;2023-07-20T03:30:58;5.30;;;4.35;;
57832;SDS011;43667;53.036;6.740;2023-07-20T03:33:28;4.63;;;4.22;;
57832;SDS011;43667;53.036;6.740;2023-07-20T03:35:54;5.20;;;4.75;;
57832;SDS011;43667;53.036;6.740;2023-07-20T03:38:21;5.25;;;4.75;;
57832;SDS011;43667;53.036;6.740;2023-07-20T03:40:50;6.03;;;5.30;;
57832;SDS011;43667;53.036;6.740;2023-07-20T03:43:17;4.88;;;4.38;;
57832;SDS011;43667;53.036;6.740;2023-07-20T03:45:43;5.13;;;4.72;;
57832;SDS011;43667;53.036;6.740;2023-07-20T03:48:10;4.88;;;4.43;;
57832;SDS011;43667;53.036;6.740;2023-07-20T03:50:36;6.32;;;5.00;;
57832;SDS011;43667;53.036;6.740;2023-07-20T03:53:02;5.15;;;4.75;;
57832;SDS011;43667;53.036;6.740;2023-07-20T03:55:28;5.90;;;5.25;;
57832;SDS011;43667;53.036;6.740;2023-07-20T03:57:55;6.60;;;5.05;;
57832;SDS011;43667;53.036;6.740;2023-07-20T04:00:20;6.63;;;4.88;;
57832;SDS011;43667;53.036;6.740;2023-07-20T04:02:46;5.43;;;4.93;;
57832;SDS011;43667;53.036;6.740;2023-07-20T04:05:12;5.38;;;4.88;;
57832;SDS011;43667;53.036;6.740;2023-07-20T04:07:38;5.28;;;4.78;;
57832;SDS011;43667;53.036;6.740;2023-07-20T04:10:03;5.78;;;5.28;;
57832;SDS011;43667;53.036;6.740;2023-07-20T04:12:29;5.70;;;4.90;;
57832;SDS011;43667;53.036;6.740;2023-07-20T04:14:55;6.65;;;4.97;;
57832;SDS011;43667;53.036;6.740;2023-07-20T04:17:20;4.20;;;3.85;;
57832;SDS011;43667;53.036;6.740;2023-07-20T04:19:46;8.75;;;4.22;;
57832;SDS011;43667;53.036;6.740;2023-07-20T04:22:11;5.05;;;3.90;;
57832;SDS011;43667;53.036;6.740;2023-07-20T04:24:41;4.00;;;3.58;;
57832;SDS011;43667;53.036;6.740;2023-07-20T04:27:07;4.22;;;3.83;;
57832;SDS011;43667;53.036;6.740;2023-07-20T04:29:33;4.78;;;4.25;;
57832;SDS011;43667;53.036;6.740;2023-07-20T04:31:59;4.75;;;3.55;;
57832;SDS011;43667;53.036;6.740;2023-07-20T04:34:25;5.03;;;3.90;;
57832;SDS011;43667;53.036;6.740;2023-07-20T04:36:52;4.70;;;4.13;;
57832;SDS011;43667;53.036;6.740;2023-07-20T04:39:18;4.18;;;3.78;;
57832;SDS011;43667;53.036;6.740;2023-07-20T04:41:46;4.28;;;3.83;;
57832;SDS011;43667;53.036;6.740;2023-07-20T04:44:13;4.47;;;3.70;;
57832;SDS011;43667;53.036;6.740;2023-07-20T04:46:39;3.95;;;3.55;;
57832;SDS011;43667;53.036;6.740;2023-07-20T04:49:05;3.80;;;3.50;;
57832;SDS011;43667;53.036;6.740;2023-07-20T04:51:31;3.08;;;2.78;;
57832;SDS011;43667;53.036;6.740;2023-07-20T04:53:57;4.40;;;2.97;;
57832;SDS011;43667;53.036;6.740;2023-07-20T04:56:23;4.07;;;3.20;;
57832;SDS011;43667;53.036;6.740;2023-07-20T04:58:49;3.67;;;2.92;;
57832;SDS011;43667;53.036;6.740;2023-07-20T05:01:15;3.85;;;2.80;;
57832;SDS011;43667;53.036;6.740;2023-07-20T05:03:41;3.58;;;2.88;;
57832;SDS011;43667;53.036;6.740;2023-07-20T05:06:06;5.68;;;2.60;;
57832;SDS011;43667;53.036;6.740;2023-07-20T05:08:32;3.60;;;2.60;;
57832;SDS011;43667;53.036;6.740;2023-07-20T05:10:58;4.57;;;2.67;;
57832;SDS011;43667;53.036;6.740;2023-07-20T05:13:24;3.47;;;2.50;;
57832;SDS011;43667;53.036;6.740;2023-07-20T05:15:51;5.20;;;2.00;;
57832;SDS011;43667;53.036;6.740;2023-07-20T05:18:17;4.22;;;2.00;;
57832;SDS011;43667;53.036;6.740;2023-07-20T05:20:48;3.65;;;1.98;;
57832;SDS011;43667;53.036;6.740;2023-07-20T05:23:14;3.33;;;2.00;;
57832;SDS011;43667;53.036;6.740;2023-07-20T05:25:40;3.15;;;1.90;;
57832;SDS011;43667;53.036;6.740;2023-07-20T05:28:06;2.53;;;1.75;;
57832;SDS011;43667;53.036;6.740;2023-07-20T05:30:31;2.83;;;1.80;;
57832;SDS011;43667;53.036;6.740;2023-07-20T05:32:57;2.42;;;1.70;;
57832;SDS011;43667;53.036;6.740;2023-07-20T05:35:22;2.10;;;1.90;;
57832;SDS011;43667;53.036;6.740;2023-07-20T05:37:48;2.35;;;1.20;;
57832;SDS011;43667;53.036;6.740;2023-07-20T05:40:14;2.60;;;1.70;;
57832;SDS011;43667;53.036;6.740;2023-07-20T05:42:44;2.42;;;1.45;;
57832;SDS011;43667;53.036;6.740;2023-07-20T05:45:11;4.85;;;1.33;;
57832;SDS011;43667;53.036;6.740;2023-07-20T05:47:37;2.28;;;1.00;;
57832;SDS011;43667;53.036;6.740;2023-07-20T05:50:03;2.10;;;0.88;;
57832;SDS011;43667;53.036;6.740;2023-07-20T05:52:29;3.25;;;1.27;;
57832;SDS011;43667;53.036;6.740;2023-07-20T05:54:54;3.55;;;1.25;;
57832;SDS011;43667;53.036;6.740;2023-07-20T05:57:20;1.90;;;1.20;;
57832;SDS011;43667;53.036;6.740;2023-07-20T05:59:46;4.32;;;1.35;;
57832;SDS011;43667;53.036;6.740;2023-07-20T06:02:11;3.78;;;1.10;;
57832;SDS011;43667;53.036;6.740;2023-07-20T06:04:38;2.60;;;1.27;;
57832;SDS011;43667;53.036;6.740;2023-07-20T06:07:05;2.58;;;1.00;;
57832;SDS011;43667;53.036;6.740;2023-07-20T06:09:32;2.83;;;1.27;;
57832;SDS011;43667;53.036;6.740;2023-07-20T06:11:58;5.80;;;1.30;;
57832;SDS011;43667;53.036;6.740;2023-07-20T06:14:24;2.13;;;1.02;;
57832;SDS011;43667;53.036;6.740;2023-07-20T06:16:49;4.18;;;0.85;;
57832;SDS011;43667;53.036;6.740;2023-07-20T06:19:15;3.10;;;1.30;;
57832;SDS011;43667;53.036;6.740;2023-07-20T06:21:41;2.65;;;1.02;;
57832;SDS011;43667;53.036;6.740;2023-07-20T06:24:07;1.23;;;0.75;;
57832;SDS011;43667;53.036;6.740;2023-07-20T06:26:32;3.72;;;0.70;;
57832;SDS011;43667;53.036;6.740;2023-07-20T06:29:04;2.05;;;0.70;;
57832;SDS011;43667;53.036;6.740;2023-07-20T06:31:33;3.92;;;0.90;;
57832;SDS011;43667;53.036;6.740;2023-07-20T06:33:59;2.13;;;0.70;;
57832;SDS011;43667;53.036;6.740;2023-07-20T06:36:26;1.35;;;0.60;;
57832;SDS011;43667;53.036;6.740;2023-07-20T06:38:52;1.88;;;0.63;;
57832;SDS011;43667;53.036;6.740;2023-07-20T06:41:18;3.80;;;0.80;;
57832;SDS011;43667;53.036;6.740;2023-07-20T06:43:44;3.05;;;0.60;;
57832;SDS011;43667;53.036;6.740;2023-07-20T06:46:10;5.10;;;0.65;;
57832;SDS011;43667;53.036;6.740;2023-07-20T06:48:35;2.00;;;0.60;;
57832;SDS011;43667;53.036;6.740;2023-07-20T06:51:01;4.30;;;0.50;;
57832;SDS011;43667;53.036;6.740;2023-07-20T06:53:27;1.80;;;0.60;;
57832;SDS011;43667;53.036;6.740;2023-07-20T06:55:53;3.05;;;0.63;;
57832;SDS011;43667;53.036;6.740;2023-07-20T06:58:19;1.90;;;0.50;;
57832;SDS011;43667;53.036;6.740;2023-07-20T07:00:46;3.00;;;0.63;;
57832;SDS011;43667;53.036;6.740;2023-07-20T07:03:12;4.20;;;0.52;;
57832;SDS011;43667;53.036;6.740;2023-07-20T07:05:37;3.55;;;0.80;;
57832;SDS011;43667;53.036;6.740;2023-07-20T07:08:06;2.30;;;0.50;;
57832;SDS011;43667;53.036;6.740;2023-07-20T07:10:33;4.22;;;0.95;;
57832;SDS011;43667;53.036;6.740;2023-07-20T07:13:00;4.30;;;0.70;;
57832;SDS011;43667;53.036;6.740;2023-07-20T07:15:27;2.90;;;0.50;;
57832;SDS011;43667;53.036;6.740;2023-07-20T07:17:52;3.42;;;0.45;;
57832;SDS011;43667;53.036;6.740;2023-07-20T07:20:18;2.10;;;0.52;;
57832;SDS011;43667;53.036;6.740;2023-07-20T07:22:44;2.08;;;0.40;;
57832;SDS011;43667;53.036;6.740;2023-07-20T07:25:10;3.20;;;0.50;;
57832;SDS011;43667;53.036;6.740;2023-07-20T07:27:36;3.10;;;0.55;;
57832;SDS011;43667;53.036;6.740;2023-07-20T07:30:05;2.83;;;0.73;;
57832;SDS011;43667;53.036;6.740;2023-07-20T07:32:31;2.42;;;0.50;;
57832;SDS011;43667;53.036;6.740;2023-07-20T07:34:56;1.20;;;0.57;;
57832;SDS011;43667;53.036;6.740;2023-07-20T07:37:23;3.70;;;0.70;;
57832;SDS011;43667;53.036;6.740;2023-07-20T07:39:49;2.97;;;0.50;;
57832;SDS011;43667;53.036;6.740;2023-07-20T07:42:14;2.28;;;0.70;;
57832;SDS011;43667;53.036;6.740;2023-07-20T07:44:40;3.60;;;1.15;;
57832;SDS011;43667;53.036;6.740;2023-07-20T07:47:06;4.95;;;0.80;;
57832;SDS011;43667;53.036;6.740;2023-07-20T07:49:31;3.25;;;0.65;;
57832;SDS011;43667;53.036;6.740;2023-07-20T07:51:57;3.70;;;1.10;;
57832;SDS011;43667;53.036;6.740;2023-07-20T07:54:23;2.05;;;0.82;;
57832;SDS011;43667;53.036;6.740;2023-07-20T07:56:48;3.10;;;0.70;;
57832;SDS011;43667;53.036;6.740;2023-07-20T07:59:16;2.40;;;0.65;;
57832;SDS011;43667;53.036;6.740;2023-07-20T08:01:41;4.30;;;0.85;;
57832;SDS011;43667;53.036;6.740;2023-07-20T08:04:07;4.32;;;0.93;;
57832;SDS011;43667;53.036;6.740;2023-07-20T08:06:33;4.75;;;1.17;;
57832;SDS011;43667;53.036;6.740;2023-07-20T08:08:59;4.32;;;0.70;;
57832;SDS011;43667;53.036;6.740;2023-07-20T08:11:25;1.58;;;0.68;;
57832;SDS011;43667;53.036;6.740;2023-07-20T08:13:50;2.70;;;1.00;;
57832;SDS011;43667;53.036;6.740;2023-07-20T08:16:16;3.22;;;0.90;;
57832;SDS011;43667;53.036;6.740;2023-07-20T08:18:41;3.00;;;0.75;;
57832;SDS011;43667;53.036;6.740;2023-07-20T08:21:09;2.65;;;0.80;;
57832;SDS011;43667;53.036;6.740;2023-07-20T08:23:34;2.65;;;0.82;;
57832;SDS011;43667;53.036;6.740;2023-07-20T08:26:00;6.13;;;1.58;;
57832;SDS011;43667;53.036;6.740;2023-07-20T08:28:26;2.08;;;0.73;;
57832;SDS011;43667;53.036;6.740;2023-07-20T08:30:52;1.80;;;0.68;;
57832;SDS011;43667;53.036;6.740;2023-07-20T08:33:18;2.45;;;0.70;;
57832;SDS011;43667;53.036;6.740;2023-07-20T08:35:48;2.63;;;0.90;;
57832;SDS011;43667;53.036;6.740;2023-07-20T08:38:14;2.72;;;0.73;;
57832;SDS011;43667;53.036;6.740;2023-07-20T08:40:43;2.17;;;0.77;;
57832;SDS011;43667;53.036;6.740;2023-07-20T08:43:10;1.50;;;0.70;;
57832;SDS011;43667;53.036;6.740;2023-07-20T08:45:38;5.43;;;1.02;;
57832;SDS011;43667;53.036;6.740;2023-07-20T08:48:07;3.42;;;0.73;;
57832;SDS011;43667;53.036;6.740;2023-07-20T08:50:34;2.17;;;0.80;;
57832;SDS011;43667;53.036;6.740;2023-07-20T08:53:01;1.20;;;0.80;;
57832;SDS011;43667;53.036;6.740;2023-07-20T08:55:28;2.95;;;0.82;;
57832;SDS011;43667;53.036;6.740;2023-07-20T08:57:54;2.55;;;0.80;;
57832;SDS011;43667;53.036;6.740;2023-07-20T09:00:21;5.18;;;0.80;;
57832;SDS011;43667;53.036;6.740;2023-07-20T09:02:49;2.65;;;0.70;;
57832;SDS011;43667;53.036;6.740;2023-07-20T09:05:19;2.63;;;0.80;;
57832;SDS011;43667;53.036;6.740;2023-07-20T09:07:45;2.58;;;0.73;;
57832;SDS011;43667;53.036;6.740;2023-07-20T09:10:11;2.38;;;0.50;;
57832;SDS011;43667;53.036;6.740;2023-07-20T09:12:38;2.33;;;0.55;;
57832;SDS011;43667;53.036;6.740;2023-07-20T09:15:05;3.00;;;0.60;;
57832;SDS011;43667;53.036;6.740;2023-07-20T09:17:31;3.80;;;0.90;;
57832;SDS011;43667;53.036;6.740;2023-07-20T09:19:58;2.70;;;0.77;;
57832;SDS011;43667;53.036;6.740;2023-07-20T09:22:30;3.33;;;1.10;;
57832;SDS011;43667;53.036;6.740;2023-07-20T09:24:57;3.00;;;1.05;;
57832;SDS011;43667;53.036;6.740;2023-07-20T09:27:31;2.45;;;1.27;;
57832;SDS011;43667;53.036;6.740;2023-07-20T09:30:10;2.42;;;1.55;;
57832;SDS011;43667;53.036;6.740;2023-07-20T09:32:48;5.15;;;1.20;;
57832;SDS011;43667;53.036;6.740;2023-07-20T09:35:19;4.40;;;1.20;;
57832;SDS011;43667;53.036;6.740;2023-07-20T09:37:47;7.55;;;1.60;;
57832;SDS011;43667;53.036;6.740;2023-07-20T09:40:17;3.67;;;1.38;;
57832;SDS011;43667;53.036;6.740;2023-07-20T09:42:43;4.38;;;1.48;;
57832;SDS011;43667;53.036;6.740;2023-07-20T09:45:09;2.50;;;0.90;;
57832;SDS011;43667;53.036;6.740;2023-07-20T09:47:38;3.75;;;1.75;;
57832;SDS011;43667;53.036;6.740;2023-07-20T09:50:05;2.28;;;1.40;;
57832;SDS011;43667;53.036;6.740;2023-07-20T09:52:37;2.50;;;0.90;;
57832;SDS011;43667;53.036;6.740;2023-07-20T09:55:05;3.53;;;0.98;;
57832;SDS011;43667;53.036;6.740;2023-07-20T09:57:34;4.90;;;1.60;;
57832;SDS011;43667;53.036;6.740;2023-07-20T10:00:01;4.88;;;1.27;;
57832;SDS011;43667;53.036;6.740;2023-07-20T10:02:37;5.55;;;1.77;;
57832;SDS011;43667;53.036;6.740;2023-07-20T10:05:07;6.57;;;1.60;;
57832;SDS011;43667;53.036;6.740;2023-07-20T10:07:36;3.80;;;1.48;;
57832;SDS011;43667;53.036;6.740;2023-07-20T10:10:06;2.65;;;0.80;;
57832;SDS011;43667;53.036;6.740;2023-07-20T10:12:35;8.32;;;1.95;;
57832;SDS011;43667;53.036;6.740;2023-07-20T10:15:26;2.67;;;0.98;;
57832;SDS011;43667;53.036;6.740;2023-07-20T10:18:07;4.18;;;1.70;;
57832;SDS011;43667;53.036;6.740;2023-07-20T10:20:36;5.22;;;1.30;;
57832;SDS011;43667;53.036;6.740;2023-07-20T10:23:06;5.68;;;0.88;;
57832;SDS011;43667;53.036;6.740;2023-07-20T10:25:32;2.88;;;1.02;;
57832;SDS011;43667;53.036;6.740;2023-07-20T10:28:03;2.28;;;0.80;;
57832;SDS011;43667;53.036;6.740;2023-07-20T10:30:31;4.68;;;0.85;;
57832;SDS011;43667;53.036;6.740;2023-07-20T10:32:58;5.30;;;0.90;;
57832;SDS011;43667;53.036;6.740;2023-07-20T10:35:28;4.78;;;0.73;;
57832;SDS011;43667;53.036;6.740;2023-07-20T10:37:54;5.63;;;1.00;;
57832;SDS011;43667;53.036;6.740;2023-07-20T10:40:25;2.28;;;0.80;;
57832;SDS011;43667;53.036;6.740;2023-07-20T10:43:17;2.60;;;0.70;;
57832;SDS011;43667;53.036;6.740;2023-07-20T10:45:48;2.15;;;0.57;;
57832;SDS011;43667;53.036;6.740;2023-07-20T10:53:36;3.47;;;0.88;;
57832;SDS011;43667;53.036;6.740;2023-07-20T10:56:09;1.98;;;0.47;;
57832;SDS011;43667;53.036;6.740;2023-07-20T10:58:38;4.32;;;0.88;;
57832;SDS011;43667;53.036;6.740;2023-07-20T11:01:04;4.45;;;0.70;;
57832;SDS011;43667;53.036;6.740;2023-07-20T11:03:37;3.25;;;0.57;;
57832;SDS011;43667;53.036;6.740;2023-07-20T11:08:50;1.80;;;0.65;;
57832;SDS011;43667;53.036;6.740;2023-07-20T11:11:25;3.05;;;0.50;;
57832;SDS011;43667;53.036;6.740;2023-07-20T11:13:58;2.97;;;0.77;;
57832;SDS011;43667;53.036;6.740;2023-07-20T11:16:35;1.40;;;0.50;;
57832;SDS011;43667;53.036;6.740;2023-07-20T11:19:03;2.28;;;0.60;;
57832;SDS011;43667;53.036;6.740;2023-07-20T11:21:30;2.65;;;0.73;;
57832;SDS011;43667;53.036;6.740;2023-07-20T11:24:05;3.65;;;0.70;;
57832;SDS011;43667;53.036;6.740;2023-07-20T11:26:39;1.85;;;0.50;;
57832;SDS011;43667;53.036;6.740;2023-07-20T11:29:09;3.53;;;0.70;;
57832;SDS011;43667;53.036;6.740;2023-07-20T11:31:35;2.67;;;0.57;;
57832;SDS011;43667;53.036;6.740;2023-07-20T11:34:05;1.02;;;0.50;;
57832;SDS011;43667;53.036;6.740;2023-07-20T11:36:31;2.08;;;0.60;;
57832;SDS011;43667;53.036;6.740;2023-07-20T11:38:58;3.53;;;0.50;;
57832;SDS011;43667;53.036;6.740;2023-07-20T11:41:24;3.80;;;0.63;;
57832;SDS011;43667;53.036;6.740;2023-07-20T11:43:51;1.98;;;0.50;;
57832;SDS011;43667;53.036;6.740;2023-07-20T11:46:18;2.83;;;0.65;;
57832;SDS011;43667;53.036;6.740;2023-07-20T11:48:44;2.45;;;0.73;;
57832;SDS011;43667;53.036;6.740;2023-07-20T11:51:14;2.58;;;0.43;;
57832;SDS011;43667;53.036;6.740;2023-07-20T11:53:41;2.53;;;0.60;;
57832;SDS011;43667;53.036;6.740;2023-07-20T11:56:08;1.92;;;0.43;;
57832;SDS011;43667;53.036;6.740;2023-07-20T11:58:33;4.95;;;0.60;;
57832;SDS011;43667;53.036;6.740;2023-07-20T12:00:59;2.10;;;0.60;;
57832;SDS011;43667;53.036;6.740;2023-07-20T12:03:24;1.58;;;0.60;;
57832;SDS011;43667;53.036;6.740;2023-07-20T12:05:50;4.90;;;0.63;;
57832;SDS011;43667;53.036;6.740;2023-07-20T12:08:16;2.17;;;0.65;;
57832;SDS011;43667;53.036;6.740;2023-07-20T12:10:41;3.13;;;0.70;;
57832;SDS011;43667;53.036;6.740;2023-07-20T12:13:09;1.83;;;0.50;;
57832;SDS011;43667;53.036;6.740;2023-07-20T12:15:36;2.05;;;0.60;;
57832;SDS011;43667;53.036;6.740;2023-07-20T12:18:02;2.80;;;0.80;;
57832;SDS011;43667;53.036;6.740;2023-07-20T12:20:29;2.35;;;0.63;;
57832;SDS011;43667;53.036;6.740;2023-07-20T12:23:00;2.20;;;0.60;;
57832;SDS011;43667;53.036;6.740;2023-07-20T12:25:44;2.10;;;0.65;;
57832;SDS011;43667;53.036;6.740;2023-07-20T12:28:11;1.67;;;0.50;;
57832;SDS011;43667;53.036;6.740;2023-07-20T12:30:42;1.48;;;0.40;;
57832;SDS011;43667;53.036;6.740;2023-07-20T12:33:09;1.85;;;0.57;;
57832;SDS011;43667;53.036;6.740;2023-07-20T12:35:35;1.63;;;0.60;;
57832;SDS011;43667;53.036;6.740;2023-07-20T12:38:01;1.92;;;0.93;;
57832;SDS011;43667;53.036;6.740;2023-07-20T12:40:26;0.82;;;0.38;;
57832;SDS011;43667;53.036;6.740;2023-07-20T12:42:52;1.98;;;0.70;;
57832;SDS011;43667;53.036;6.740;2023-07-20T12:45:18;4.15;;;0.50;;
57832;SDS011;43667;53.036;6.740;2023-07-20T12:47:43;2.35;;;0.75;;
57832;SDS011;43667;53.036;6.740;2023-07-20T12:50:12;3.28;;;0.82;;
57832;SDS011;43667;53.036;6.740;2023-07-20T12:52:38;2.55;;;0.73;;
57832;SDS011;43667;53.036;6.740;2023-07-20T12:55:05;2.88;;;0.52;;
57832;SDS011;43667;53.036;6.740;2023-07-20T12:57:33;2.67;;;0.60;;
57832;SDS011;43667;53.036;6.740;2023-07-20T13:00:02;3.90;;;0.57;;
57832;SDS011;43667;53.036;6.740;2023-07-20T13:02:32;4.90;;;0.80;;
57832;SDS011;43667;53.036;6.740;2023-07-20T13:04:58;2.13;;;0.60;;
57832;SDS011;43667;53.036;6.740;2023-07-20T13:07:31;2.13;;;0.73;;
57832;SDS011;43667;53.036;6.740;2023-07-20T13:10:02;2.33;;;0.90;;
57832;SDS011;43667;53.036;6.740;2023-07-20T13:12:29;1.85;;;0.60;;
57832;SDS011;43667;53.036;6.740;2023-07-20T13:14:56;3.22;;;0.40;;
57832;SDS011;43667;53.036;6.740;2023-07-20T13:17:25;2.92;;;0.70;;
57832;SDS011;43667;53.036;6.740;2023-07-20T13:19:52;2.92;;;0.60;;
57832;SDS011;43667;53.036;6.740;2023-07-20T13:22:17;2.85;;;0.50;;
57832;SDS011;43667;53.036;6.740;2023-07-20T13:24:44;3.88;;;0.70;;
57832;SDS011;43667;53.036;6.740;2023-07-20T13:27:19;3.00;;;0.60;;
57832;SDS011;43667;53.036;6.740;2023-07-20T13:29:45;1.52;;;0.80;;
57832;SDS011;43667;53.036;6.740;2023-07-20T13:32:14;2.88;;;0.75;;
57832;SDS011;43667;53.036;6.740;2023-07-20T13:34:40;4.63;;;0.93;;
57832;SDS011;43667;53.036;6.740;2023-07-20T13:37:06;3.08;;;0.73;;
57832;SDS011;43667;53.036;6.740;2023-07-20T13:39:34;2.20;;;0.52;;
57832;SDS011;43667;53.036;6.740;2023-07-20T13:41:59;1.85;;;0.75;;
57832;SDS011;43667;53.036;6.740;2023-07-20T13:44:29;3.35;;;0.60;;
57832;SDS011;43667;53.036;6.740;2023-07-20T13:46:54;2.42;;;0.85;;
57832;SDS011;43667;53.036;6.740;2023-07-20T13:49:20;3.17;;;0.70;;
57832;SDS011;43667;53.036;6.740;2023-07-20T13:51:45;2.20;;;0.60;;
57832;SDS011;43667;53.036;6.740;2023-07-20T13:54:12;2.92;;;0.80;;
57832;SDS011;43667;53.036;6.740;2023-07-20T13:56:37;2.55;;;0.60;;
57832;SDS011;43667;53.036;6.740;2023-07-20T13:59:03;2.70;;;0.80;;
57832;SDS011;43667;53.036;6.740;2023-07-20T14:01:29;3.13;;;0.77;;
57832;SDS011;43667;53.036;6.740;2023-07-20T14:03:56;7.55;;;0.65;;
57832;SDS011;43667;53.036;6.740;2023-07-20T14:06:22;3.88;;;1.33;;
57832;SDS011;43667;53.036;6.740;2023-07-20T14:08:47;2.40;;;0.60;;
57832;SDS011;43667;53.036;6.740;2023-07-20T14:11:14;2.45;;;0.57;;
57832;SDS011;43667;53.036;6.740;2023-07-20T14:13:40;2.17;;;0.73;;
57832;SDS011;43667;53.036;6.740;2023-07-20T14:16:05;2.33;;;0.80;;
57832;SDS011;43667;53.036;6.740;2023-07-20T14:18:31;1.83;;;0.80;;
57832;SDS011;43667;53.036;6.740;2023-07-20T14:20:57;1.48;;;0.50;;
57832;SDS011;43667;53.036;6.740;2023-07-20T14:23:22;2.85;;;0.93;;
57832;SDS011;43667;53.036;6.740;2023-07-20T14:25:48;2.33;;;0.70;;
57832;SDS011;43667;53.036;6.740;2023-07-20T14:28:14;3.25;;;0.82;;
57832;SDS011;43667;53.036;6.740;2023-07-20T14:30:39;3.92;;;0.75;;
57832;SDS011;43667;53.036;6.740;2023-07-20T14:33:06;3.10;;;0.82;;
57832;SDS011;43667;53.036;6.740;2023-07-20T14:35:31;2.47;;;0.98;;
57832;SDS011;43667;53.036;6.740;2023-07-20T14:37:57;1.70;;;0.60;;
57832;SDS011;43667;53.036;6.740;2023-07-20T14:40:23;5.75;;;0.80;;
57832;SDS011;43667;53.036;6.740;2023-07-20T14:42:49;2.55;;;0.70;;
57832;SDS011;43667;53.036;6.740;2023-07-20T14:45:14;3.25;;;1.25;;
57832;SDS011;43667;53.036;6.740;2023-07-20T14:47:40;4.35;;;0.77;;
57832;SDS011;43667;53.036;6.740;2023-07-20T14:50:05;2.00;;;0.60;;
57832;SDS011;43667;53.036;6.740;2023-07-20T14:52:31;1.80;;;0.70;;
57832;SDS011;43667;53.036;6.740;2023-07-20T14:54:57;1.70;;;0.80;;
57832;SDS011;43667;53.036;6.740;2023-07-20T14:57:22;3.83;;;0.90;;
57832;SDS011;43667;53.036;6.740;2023-07-20T14:59:51;3.97;;;0.80;;
57832;SDS011;43667;53.036;6.740;2023-07-20T15:02:17;4.85;;;0.90;;
57832;SDS011;43667;53.036;6.740;2023-07-20T15:04:47;3.80;;;1.08;;